Time;durP1;ratioP1;P1;durP2;ratioP2;P2;SDS_P1;SDS_P2;PMS_P1;PMS_P2;Temp;Humidity;BMP_temperature;BMP_pressure;BME280_temperature;BME280_humidity;BME280_pressure;Samples;Min_cycle;Max_cycle;Signal;HPM_P1;HPM_P2
2022/04/03 00:00:34;;;;;;;1.00;0.30;;;-1.00;99.90;;;;;;5020238;28;20382;-76
2022/04/03 00:03:01;;;;;;;1.45;0.30;;;-1.00;99.90;;;;;;5004345;28;20116;-77
2022/04/03 00:05:28;;;;;;;1.77;0.22;;;-1.00;99.90;;;;;;4999338;28;20325;-78
2022/04/03 00:07:54;;;;;;;1.17;0.30;;;-1.10;99.90;;;;;;5022272;28;20630;-78
2022/04/03 00:10:21;;;;;;;1.48;0.30;;;-1.10;99.90;;;;;;5003808;28;20377;-76
2022/04/03 00:12:47;;;;;;;1.92;0.30;;;-1.10;99.90;;;;;;4998988;28;20124;-77
2022/04/03 00:15:17;;;;;;;2.08;0.30;;;-1.20;99.90;;;;;;4966477;28;20069;-76
2022/04/03 00:17:43;;;;;;;0.60;0.20;;;-1.20;99.90;;;;;;4986418;28;20069;-76
2022/04/03 00:20:10;;;;;;;0.90;0.20;;;-1.20;99.90;;;;;;4999783;28;20532;-76
2022/04/03 00:22:36;;;;;;;0.77;0.20;;;-1.40;99.90;;;;;;5020142;28;20041;-76
2022/04/03 00:25:02;;;;;;;1.25;0.20;;;-1.40;99.90;;;;;;5004333;28;20030;-77
2022/04/03 00:27:28;;;;;;;0.60;0.20;;;-1.30;99.90;;;;;;5002877;28;20556;-77
2022/04/03 00:29:53;;;;;;;0.60;0.20;;;-1.50;99.90;;;;;;4987138;28;20025;-77
2022/04/03 00:32:19;;;;;;;1.40;0.20;;;-1.80;99.90;;;;;;5003825;28;20071;-76
2022/04/03 00:34:45;;;;;;;0.73;0.20;;;-1.90;99.90;;;;;;4988171;28;20034;-77
2022/04/03 00:37:11;;;;;;;0.65;0.20;;;-1.80;99.90;;;;;;5021978;28;20535;-77
2022/04/03 00:39:37;;;;;;;0.80;0.20;;;-1.70;99.90;;;;;;4987187;28;20037;-77
2022/04/03 00:42:06;;;;;;;1.98;0.20;;;-1.90;99.90;;;;;;5010557;28;20167;-76
2022/04/03 00:44:33;;;;;;;0.43;0.10;;;-2.00;99.90;;;;;;5003720;28;20037;-77
2022/04/03 00:46:59;;;;;;;0.90;0.20;;;-1.90;99.90;;;;;;4980656;28;20299;-77
2022/04/03 00:49:27;;;;;;;0.82;0.13;;;-1.80;99.90;;;;;;4981180;28;20029;-77
2022/04/03 00:51:52;;;;;;;0.75;0.13;;;-1.90;99.90;;;;;;5014754;28;20050;-76
2022/04/03 00:54:18;;;;;;;0.82;0.20;;;-1.90;99.90;;;;;;4998161;28;20030;-76
2022/04/03 00:56:45;;;;;;;0.52;0.10;;;-2.10;99.90;;;;;;5020002;28;20048;-76
2022/04/03 00:59:14;;;;;;;0.70;0.20;;;-2.10;99.90;;;;;;5019175;28;20497;-76
2022/04/03 01:01:41;;;;;;;1.00;0.13;;;-2.20;99.90;;;;;;5018264;28;20025;-76
2022/04/03 01:04:08;;;;;;;1.05;0.20;;;-2.20;99.90;;;;;;5020814;28;20808;-76
2022/04/03 01:06:34;;;;;;;1.23;0.20;;;-2.20;99.90;;;;;;5009247;28;20658;-76
2022/04/03 01:09:01;;;;;;;0.60;0.20;;;-2.20;99.90;;;;;;5020532;28;20580;-76
2022/04/03 01:11:27;;;;;;;0.80;0.10;;;-2.30;99.90;;;;;;5018136;28;20029;-76
2022/04/03 01:13:54;;;;;;;0.95;0.28;;;-2.40;99.90;;;;;;5020920;28;21044;-77
2022/04/03 01:16:19;;;;;;;1.73;0.22;;;-2.30;99.90;;;;;;5002056;28;20652;-76
2022/04/03 01:18:46;;;;;;;0.82;0.20;;;-2.30;99.90;;;;;;4979711;28;20542;-77
2022/04/03 01:21:12;;;;;;;1.10;0.20;;;-2.40;99.90;;;;;;5000485;28;20418;-76
2022/04/03 01:23:38;;;;;;;0.55;0.20;;;-2.40;99.90;;;;;;4986749;28;20036;-76
2022/04/03 01:26:03;;;;;;;0.75;0.20;;;-2.50;99.90;;;;;;5018567;28;20501;-77
2022/04/03 01:28:29;;;;;;;0.82;0.28;;;-2.60;99.90;;;;;;5000613;28;20044;-77
2022/04/03 01:30:55;;;;;;;0.60;0.20;;;-2.60;99.90;;;;;;5019806;28;20041;-77
2022/04/03 01:33:21;;;;;;;1.08;0.30;;;-2.70;99.90;;;;;;5020097;28;20029;-76
2022/04/03 01:35:46;;;;;;;0.98;0.20;;;-2.80;99.90;;;;;;4979267;28;20500;-76
2022/04/03 01:38:12;;;;;;;0.60;0.20;;;-2.80;99.90;;;;;;5009515;28;20037;-76
2022/04/03 01:40:38;;;;;;;1.33;0.20;;;-2.80;99.90;;;;;;4996486;28;20112;-77
2022/04/03 01:43:09;;;;;;;1.05;0.30;;;-2.80;99.90;;;;;;4997296;28;20051;-77
2022/04/03 01:45:39;;;;;;;1.10;0.20;;;-2.80;99.90;;;;;;5001876;28;20075;-77
2022/04/03 01:48:06;;;;;;;1.13;0.20;;;-2.80;99.90;;;;;;4996313;28;20037;-77
2022/04/03 01:50:32;;;;;;;1.15;0.30;;;-2.80;99.90;;;;;;4996139;28;20065;-77
2022/04/03 01:52:57;;;;;;;0.90;0.20;;;-2.80;99.90;;;;;;5019357;28;20084;-76
2022/04/03 01:55:24;;;;;;;1.00;0.20;;;-2.90;99.90;;;;;;4996446;28;20087;-76
2022/04/03 01:57:50;;;;;;;0.85;0.20;;;-2.90;99.90;;;;;;5001909;28;20037;-76
2022/04/03 02:00:16;;;;;;;1.17;0.30;;;-2.90;99.90;;;;;;5002242;28;20037;-77
2022/04/03 02:02:42;;;;;;;1.38;0.30;;;-2.90;99.90;;;;;;5001407;28;20033;-77
2022/04/03 02:05:08;;;;;;;1.58;0.22;;;-3.00;99.90;;;;;;4999908;28;20473;-76
2022/04/03 02:07:34;;;;;;;1.45;0.40;;;-3.10;99.90;;;;;;5018759;28;20049;-77
2022/04/03 02:10:02;;;;;;;1.55;0.45;;;-3.00;99.90;;;;;;5019466;28;20025;-77
2022/04/03 02:12:28;;;;;;;0.95;0.30;;;-2.90;99.90;;;;;;5018538;28;20041;-76
2022/04/03 02:14:54;;;;;;;1.10;0.30;;;-2.90;99.90;;;;;;5000544;28;20043;-76
2022/04/03 02:17:19;;;;;;;1.80;0.40;;;-2.90;99.90;;;;;;5000995;28;20059;-77
2022/04/03 02:19:45;;;;;;;1.80;0.50;;;-3.00;99.90;;;;;;4996098;28;20052;-77
2022/04/03 02:22:10;;;;;;;1.40;0.40;;;-3.10;99.90;;;;;;5008639;28;20378;-76
2022/04/03 02:24:36;;;;;;;1.40;0.30;;;-3.20;99.90;;;;;;5008363;28;20470;-77
2022/04/03 02:27:02;;;;;;;1.50;0.32;;;-3.30;99.90;;;;;;5001536;28;20052;-76
2022/04/03 02:29:28;;;;;;;1.35;0.30;;;-3.30;99.90;;;;;;5001773;28;20048;-76
2022/04/03 02:31:53;;;;;;;1.35;0.40;;;-3.40;99.90;;;;;;4985032;28;20172;-78
2022/04/03 02:34:19;;;;;;;1.95;0.38;;;-3.20;99.90;;;;;;4994947;28;20658;-77
2022/04/03 02:36:45;;;;;;;1.20;0.30;;;-3.20;99.90;;;;;;5002043;28;20481;-75
2022/04/03 02:39:12;;;;;;;1.38;0.28;;;-3.30;99.90;;;;;;5016440;28;20037;-76
2022/04/03 02:41:38;;;;;;;1.70;0.38;;;-3.30;99.90;;;;;;4996303;28;20080;-77
2022/04/03 02:44:04;;;;;;;1.35;0.30;;;-3.30;99.90;;;;;;5000993;28;20083;-77
2022/04/03 02:46:30;;;;;;;1.48;0.38;;;-3.40;99.90;;;;;;5018951;28;20686;-76
2022/04/03 02:48:56;;;;;;;1.60;0.40;;;-3.40;99.90;;;;;;4995045;28;20095;-76
2022/04/03 02:51:22;;;;;;;1.05;0.30;;;-3.40;99.90;;;;;;4995035;28;20097;-76
2022/04/03 02:53:48;;;;;;;0.88;0.30;;;-3.50;99.90;;;;;;4994410;28;20033;-77
2022/04/03 02:56:14;;;;;;;1.80;0.40;;;-3.50;99.90;;;;;;5000244;28;20029;-77
2022/04/03 02:58:40;;;;;;;1.58;0.30;;;-3.40;99.90;;;;;;4995604;28;20026;-77
2022/04/03 03:01:06;;;;;;;1.00;0.30;;;-3.50;99.90;;;;;;4994762;28;20037;-76
2022/04/03 03:03:32;;;;;;;1.60;0.30;;;-3.60;99.90;;;;;;4984739;28;20932;-76
2022/04/03 03:05:58;;;;;;;1.88;0.30;;;-3.40;99.90;;;;;;5018047;28;20036;-76
2022/04/03 03:08:24;;;;;;;1.55;0.40;;;-3.50;99.90;;;;;;4993728;28;20049;-76
2022/04/03 03:10:50;;;;;;;2.03;0.57;;;-3.40;99.90;;;;;;4977995;28;20425;-76
2022/04/03 03:13:16;;;;;;;1.52;0.30;;;-3.50;99.90;;;;;;5015963;28;20034;-76
2022/04/03 03:15:42;;;;;;;1.40;0.30;;;-3.50;99.90;;;;;;5001861;28;20082;-77
2022/04/03 03:18:07;;;;;;;1.10;0.40;;;-3.60;99.90;;;;;;4994337;28;20167;-77
2022/04/03 03:20:34;;;;;;;0.93;0.30;;;-3.60;99.90;;;;;;4999381;28;20482;-76
2022/04/03 03:23:00;;;;;;;1.00;0.30;;;-3.50;99.90;;;;;;5001015;28;20033;-76
2022/04/03 03:25:26;;;;;;;0.93;0.30;;;-3.60;99.90;;;;;;4978590;28;20032;-76
2022/04/03 03:27:52;;;;;;;1.05;0.30;;;-3.60;99.90;;;;;;4978122;28;20575;-76
2022/04/03 03:30:18;;;;;;;0.95;0.20;;;-3.60;99.90;;;;;;5001007;28;20021;-76
2022/04/03 03:32:43;;;;;;;1.50;0.30;;;-3.60;99.90;;;;;;4978562;28;20038;-76
2022/04/03 03:35:10;;;;;;;1.60;0.30;;;-3.50;99.90;;;;;;4997989;28;20043;-76
2022/04/03 03:37:36;;;;;;;0.77;0.30;;;-3.60;99.90;;;;;;4998651;28;20473;-77
2022/04/03 03:40:03;;;;;;;3.45;0.40;;;-3.60;99.90;;;;;;5004975;28;20055;-78
2022/04/03 03:42:29;;;;;;;1.13;0.20;;;-3.60;99.90;;;;;;4998286;28;20041;-76
2022/04/03 03:44:55;;;;;;;1.55;0.28;;;-3.70;99.90;;;;;;5022547;28;20032;-76
2022/04/03 03:47:21;;;;;;;1.90;0.20;;;-3.70;99.90;;;;;;4996724;28;20042;-77
2022/04/03 03:49:47;;;;;;;1.23;0.20;;;-3.70;99.90;;;;;;5022080;28;20036;-77
2022/04/03 03:52:12;;;;;;;0.82;0.35;;;-3.70;99.90;;;;;;5020902;28;20049;-77
2022/04/03 03:54:38;;;;;;;0.82;0.28;;;-3.70;99.90;;;;;;4998517;28;20381;-76
2022/04/03 03:57:04;;;;;;;1.58;0.20;;;-3.70;99.90;;;;;;4988150;28;20511;-77
2022/04/03 03:59:30;;;;;;;0.77;0.28;;;-3.50;99.90;;;;;;5004109;28;20033;-75
2022/04/03 04:01:56;;;;;;;1.35;0.28;;;-3.50;99.90;;;;;;5021640;28;20048;-76
2022/04/03 04:04:21;;;;;;;1.85;0.30;;;-3.50;99.90;;;;;;4999054;28;20406;-76
2022/04/03 04:06:48;;;;;;;1.30;0.20;;;-3.70;99.90;;;;;;5002688;28;20510;-76
2022/04/03 04:09:14;;;;;;;1.70;0.20;;;-3.60;99.90;;;;;;5010943;28;20030;-76
2022/04/03 04:11:39;;;;;;;1.02;0.20;;;-3.60;99.90;;;;;;4997287;28;20037;-76
2022/04/03 04:14:05;;;;;;;0.90;0.20;;;-3.70;99.90;;;;;;5003020;28;20166;-76
2022/04/03 04:16:31;;;;;;;0.77;0.20;;;-3.80;99.90;;;;;;4980401;28;20390;-76
2022/04/03 04:18:57;;;;;;;1.73;0.20;;;-3.70;99.90;;;;;;4986994;28;20103;-76
2022/04/03 04:21:23;;;;;;;1.15;0.20;;;-3.60;99.90;;;;;;5003398;28;20021;-76
2022/04/03 04:23:48;;;;;;;1.15;0.20;;;-3.70;99.90;;;;;;5019870;28;20041;-75
2022/04/03 04:26:15;;;;;;;1.30;0.22;;;-3.70;99.90;;;;;;5002295;28;20084;-75
2022/04/03 04:28:41;;;;;;;3.67;0.60;;;-3.70;99.90;;;;;;5002973;28;20120;-76
2022/04/03 04:31:07;;;;;;;0.90;0.20;;;-3.60;99.90;;;;;;5003932;28;20056;-75
2022/04/03 04:33:33;;;;;;;0.90;0.20;;;-3.50;99.90;;;;;;5020146;28;21041;-76
2022/04/03 04:35:59;;;;;;;0.50;0.20;;;-3.50;99.90;;;;;;5020937;28;20049;-76
2022/04/03 04:38:25;;;;;;;0.82;0.20;;;-3.30;99.90;;;;;;5019464;28;20025;-76
2022/04/03 04:40:51;;;;;;;0.93;0.25;;;-3.30;99.90;;;;;;5001522;28;20033;-76
2022/04/03 04:43:17;;;;;;;1.33;0.30;;;-3.30;99.90;;;;;;4997429;28;20024;-76
2022/04/03 04:45:42;;;;;;;1.27;0.30;;;-3.40;99.90;;;;;;5010468;28;20032;-76
2022/04/03 04:48:08;;;;;;;1.25;0.30;;;-3.40;99.90;;;;;;5002879;28;20045;-75
2022/04/03 04:50:33;;;;;;;1.00;0.20;;;-3.40;99.90;;;;;;5004924;28;20079;-76
2022/04/03 04:52:59;;;;;;;0.55;0.20;;;-3.40;99.90;;;;;;5020244;28;20485;-76
2022/04/03 04:55:25;;;;;;;1.02;0.30;;;-3.30;99.90;;;;;;5021242;28;20025;-75
2022/04/03 04:57:56;;;;;;;1.20;0.30;;;-3.20;99.90;;;;;;5015411;28;20029;-76
2022/04/03 05:00:25;;;;;;;0.68;0.20;;;-3.10;99.90;;;;;;5013932;28;20737;-76
2022/04/03 05:02:51;;;;;;;1.02;0.30;;;-3.00;99.90;;;;;;5001979;28;20167;-76
2022/04/03 05:05:18;;;;;;;1.90;0.35;;;-2.90;99.90;;;;;;4996604;28;20060;-76
2022/04/03 05:07:45;;;;;;;0.80;0.20;;;-2.90;99.90;;;;;;5003045;28;20041;-76
2022/04/03 05:10:15;;;;;;;0.95;0.22;;;-2.90;99.90;;;;;;5018799;28;20029;-76
2022/04/03 05:12:42;;;;;;;1.00;0.30;;;-2.90;99.90;;;;;;5018374;28;20043;-76
2022/04/03 05:15:11;;;;;;;2.60;0.30;;;-2.90;99.90;;;;;;5012999;28;20029;-76
2022/04/03 05:17:41;;;;;;;2.92;0.20;;;-2.70;99.90;;;;;;4997733;28;20124;-77
2022/04/03 05:20:08;;;;;;;0.77;0.20;;;-2.60;99.90;;;;;;5002983;28;20033;-77
2022/04/03 05:22:34;;;;;;;0.40;0.10;;;-2.50;99.90;;;;;;4985226;28;20474;-76
2022/04/03 05:24:59;;;;;;;0.70;0.25;;;-2.40;99.90;;;;;;5020097;28;20083;-76
2022/04/03 05:27:25;;;;;;;0.95;0.20;;;-2.40;99.90;;;;;;5020127;28;20142;-75
2022/04/03 05:29:51;;;;;;;0.82;0.20;;;-2.40;99.90;;;;;;4997154;28;20022;-76
2022/04/03 05:32:28;;;;;;;1.05;0.20;;;-2.30;99.90;;;;;;5001401;28;20088;-77
2022/04/03 05:34:55;;;;;;;2.03;0.40;;;-2.30;99.90;;;;;;4998938;28;20061;-76
2022/04/03 05:37:22;;;;;;;1.20;0.20;;;-2.20;99.90;;;;;;4984716;28;20052;-77
2022/04/03 05:39:48;;;;;;;0.90;0.20;;;-2.20;99.90;;;;;;5019112;28;20079;-78
2022/04/03 05:42:14;;;;;;;1.67;0.20;;;-2.10;99.90;;;;;;5000783;28;20164;-77
2022/04/03 05:44:39;;;;;;;0.80;0.20;;;-2.00;99.90;;;;;;4984043;28;20843;-77
2022/04/03 05:47:05;;;;;;;0.75;0.20;;;-2.00;99.90;;;;;;4978531;28;20636;-76
2022/04/03 05:49:31;;;;;;;2.33;0.20;;;-1.90;99.90;;;;;;5008263;28;20040;-77
2022/04/03 05:51:57;;;;;;;0.70;0.20;;;-1.90;99.90;;;;;;4981889;28;20054;-77
2022/04/03 05:54:22;;;;;;;0.80;0.20;;;-1.80;99.90;;;;;;4991806;28;20034;-76
2022/04/03 05:56:48;;;;;;;1.08;0.17;;;-1.70;99.90;;;;;;4998601;28;20101;-76
2022/04/03 05:59:14;;;;;;;1.88;0.20;;;-1.60;99.90;;;;;;5004918;28;20031;-76
2022/04/03 06:01:40;;;;;;;0.98;0.20;;;-1.50;99.90;;;;;;5006303;28;20034;-77
2022/04/03 06:04:05;;;;;;;1.02;0.20;;;-1.50;99.90;;;;;;4998634;28;20040;-76
2022/04/03 06:06:31;;;;;;;1.20;0.10;;;-1.40;99.90;;;;;;4998124;28;20050;-76
2022/04/03 06:08:57;;;;;;;1.02;0.28;;;-1.30;99.90;;;;;;4992001;28;20147;-77
2022/04/03 06:11:22;;;;;;;0.75;0.10;;;-1.30;99.90;;;;;;4977005;28;20402;-77
2022/04/03 06:13:48;;;;;;;0.70;0.20;;;-1.20;99.90;;;;;;4976131;28;20076;-77
2022/04/03 06:16:13;;;;;;;1.00;0.20;;;-1.10;99.90;;;;;;4980885;28;20498;-77
2022/04/03 06:18:39;;;;;;;2.80;0.20;;;-1.10;99.90;;;;;;4997854;28;20026;-80
2022/04/03 06:21:05;;;;;;;0.65;0.20;;;-1.10;99.90;;;;;;4999263;28;20038;-77
2022/04/03 06:23:31;;;;;;;0.80;0.30;;;-1.00;99.90;;;;;;4997915;28;20033;-77
2022/04/03 06:25:57;;;;;;;0.82;0.20;;;-0.90;99.90;;;;;;4992338;28;20143;-77
2022/04/03 06:28:24;;;;;;;0.82;0.30;;;-0.80;99.90;;;;;;4996831;28;20038;-77
2022/04/03 06:30:50;;;;;;;0.77;0.30;;;-0.80;99.90;;;;;;4980540;28;20034;-77
2022/04/03 06:33:17;;;;;;;0.82;0.20;;;-0.70;99.90;;;;;;4991737;28;20053;-77
2022/04/03 06:35:43;;;;;;;1.20;0.40;;;-0.60;99.90;;;;;;5008612;28;20044;-80
2022/04/03 06:38:09;;;;;;;1.00;0.30;;;-0.50;99.90;;;;;;4975650;28;20030;-77
2022/04/03 06:40:35;;;;;;;0.52;0.20;;;-0.50;99.90;;;;;;4999599;28;20049;-77
2022/04/03 06:43:02;;;;;;;1.25;0.30;;;-0.40;99.90;;;;;;4999047;28;20022;-78
2022/04/03 06:45:28;;;;;;;2.25;0.30;;;-0.30;99.90;;;;;;4992189;28;20083;-78
2022/04/03 06:47:57;;;;;;;1.13;0.28;;;-0.40;99.90;;;;;;4981488;28;20038;-77
2022/04/03 06:50:22;;;;;;;1.35;0.30;;;-0.40;99.90;;;;;;4997893;28;20083;-79
2022/04/03 06:52:48;;;;;;;2.05;0.30;;;-0.20;99.90;;;;;;4997863;28;20050;-77
2022/04/03 06:55:14;;;;;;;0.60;0.20;;;0.10;99.90;;;;;;4997867;28;20380;-77
2022/04/03 06:57:40;;;;;;;0.98;0.22;;;0.30;99.90;;;;;;4997853;28;20078;-77
2022/04/03 07:00:08;;;;;;;0.90;0.20;;;0.60;99.90;;;;;;5004247;28;20037;-77
2022/04/03 07:02:34;;;;;;;2.00;0.30;;;0.70;99.90;;;;;;4991894;28;20390;-78
2022/04/03 07:04:59;;;;;;;1.73;0.40;;;1.00;99.90;;;;;;5004929;28;20018;-77
2022/04/03 07:07:25;;;;;;;2.03;0.30;;;1.20;99.90;;;;;;4974806;28;20033;-78
2022/04/03 07:09:52;;;;;;;1.08;0.30;;;1.50;99.90;;;;;;5001866;28;20060;-79
2022/04/03 07:12:22;;;;;;;0.90;0.30;;;1.60;99.90;;;;;;4981668;28;20041;-77
2022/04/03 07:14:48;;;;;;;1.23;0.40;;;1.80;99.90;;;;;;4986157;28;20121;-77
2022/04/03 07:17:15;;;;;;;3.75;0.60;;;1.90;99.90;;;;;;5003944;28;20688;-77
2022/04/03 07:19:40;;;;;;;2.20;0.50;;;2.00;99.90;;;;;;5019101;28;20112;-77
2022/04/03 07:22:06;;;;;;;2.35;0.60;;;2.20;99.90;;;;;;5004658;28;20030;-78
2022/04/03 07:24:31;;;;;;;3.08;0.40;;;2.30;99.90;;;;;;5009977;28;20105;-77
2022/04/03 07:26:57;;;;;;;1.65;0.43;;;2.50;99.90;;;;;;5004758;28;20144;-79
2022/04/03 07:29:26;;;;;;;1.92;0.60;;;2.70;99.90;;;;;;5010102;28;20041;-80
2022/04/03 07:31:52;;;;;;;1.60;0.50;;;2.80;99.90;;;;;;5004383;28;20049;-80
2022/04/03 07:34:17;;;;;;;1.70;0.45;;;2.90;99.90;;;;;;5003056;28;20038;-79
2022/04/03 07:36:44;;;;;;;2.70;0.40;;;3.00;99.90;;;;;;5004452;28;20030;-80
2022/04/03 07:39:09;;;;;;;4.70;0.60;;;3.20;99.90;;;;;;4981035;28;20042;-81
2022/04/03 07:41:36;;;;;;;2.90;0.50;;;3.30;99.90;;;;;;5004507;28;20034;-79
2022/04/03 07:44:04;;;;;;;2.45;0.50;;;3.40;99.90;;;;;;5014505;28;20084;-78
2022/04/03 07:46:30;;;;;;;4.57;0.75;;;3.50;99.90;;;;;;5003613;28;20054;-81
2022/04/03 07:48:55;;;;;;;2.47;0.70;;;3.50;99.90;;;;;;4986640;28;20038;-78
2022/04/03 07:51:21;;;;;;;2.33;0.52;;;3.60;99.90;;;;;;5010143;28;20517;-79
2022/04/03 07:53:47;;;;;;;1.58;0.82;;;3.70;99.90;;;;;;4997328;28;20128;-78
2022/04/03 07:56:12;;;;;;;2.22;0.50;;;3.90;99.90;;;;;;5002121;28;20470;-78
2022/04/03 07:58:38;;;;;;;3.60;0.60;;;4.00;99.90;;;;;;4987733;28;20034;-80
2022/04/03 08:01:04;;;;;;;2.97;0.60;;;4.20;99.90;;;;;;4997231;28;20091;-78
2022/04/03 08:03:30;;;;;;;2.10;0.60;;;4.20;99.90;;;;;;5010276;28;20109;-78
2022/04/03 08:05:56;;;;;;;4.65;0.55;;;4.00;99.90;;;;;;5009312;28;20120;-77
2022/04/03 08:08:21;;;;;;;2.58;0.60;;;3.90;99.90;;;;;;5004574;28;20037;-78
2022/04/03 08:10:50;;;;;;;2.80;0.70;;;4.20;99.90;;;;;;5004233;28;20382;-78
2022/04/03 08:13:16;;;;;;;2.03;0.60;;;4.60;99.90;;;;;;5002718;28;20056;-77
2022/04/03 08:15:41;;;;;;;1.90;0.60;;;4.70;99.90;;;;;;5001913;28;20475;-78
2022/04/03 08:18:07;;;;;;;2.60;0.50;;;4.70;99.90;;;;;;4997846;28;20044;-82
2022/04/03 08:20:33;;;;;;;2.70;0.50;;;4.90;99.90;;;;;;5000968;28;20029;-79
2022/04/03 08:23:03;;;;;;;1.65;0.47;;;5.00;99.90;;;;;;4994327;28;22442;-79
2022/04/03 08:25:30;;;;;;;2.15;0.40;;;5.20;99.90;;;;;;4999986;28;20831;-80
2022/04/03 08:27:56;;;;;;;3.08;0.40;;;5.50;99.90;;;;;;4993950;28;20050;-78
2022/04/03 08:30:33;;;;;;;2.65;0.50;;;5.20;99.90;;;;;;5000502;28;20026;-79
2022/04/03 08:33:00;;;;;;;1.30;0.40;;;5.00;99.90;;;;;;4999632;28;20026;-81
2022/04/03 08:35:28;;;;;;;2.13;0.43;;;5.10;99.90;;;;;;5009521;28;20860;-78
2022/04/03 08:37:54;;;;;;;1.38;0.40;;;4.90;99.90;;;;;;5014927;28;20470;-79
2022/04/03 08:40:23;;;;;;;1.95;0.50;;;5.00;99.90;;;;;;4992052;28;20459;-78
2022/04/03 08:42:54;;;;;;;2.30;0.40;;;5.40;99.90;;;;;;4992255;28;20156;-79
2022/04/03 08:45:20;;;;;;;3.53;0.63;;;5.70;99.90;;;;;;4998774;28;20620;-80
2022/04/03 08:47:56;;;;;;;1.80;0.50;;;5.70;99.90;;;;;;4997251;28;20080;-80
2022/04/03 08:50:31;;;;;;;2.10;0.50;;;5.90;99.90;;;;;;4961132;28;20034;-79
2022/04/03 08:53:00;;;;;;;1.98;0.57;;;6.20;99.90;;;;;;4998911;28;20205;-79
2022/04/03 08:55:26;;;;;;;1.73;0.60;;;6.10;99.90;;;;;;4982932;28;20037;-79
2022/04/03 08:57:52;;;;;;;2.55;0.90;;;5.90;99.90;;;;;;5001987;28;20320;-78
2022/04/03 09:00:18;;;;;;;2.28;0.50;;;5.50;99.90;;;;;;5020762;28;20662;-79
2022/04/03 09:02:47;;;;;;;1.75;0.50;;;6.10;99.90;;;;;;5002381;28;20040;-78
2022/04/03 09:05:17;;;;;;;3.57;0.50;;;6.40;99.90;;;;;;4978734;28;20033;-78
2022/04/03 09:07:43;;;;;;;3.57;0.73;;;6.70;99.90;;;;;;5020022;28;20040;-79
2022/04/03 09:10:16;;;;;;;4.00;0.50;;;7.10;99.90;;;;;;4977592;28;20296;-79
2022/04/03 09:12:47;;;;;;;2.20;0.50;;;7.30;99.90;;;;;;4996020;28;20632;-79
2022/04/03 09:15:22;;;;;;;1.40;0.60;;;7.10;99.90;;;;;;4993755;28;20034;-78
2022/04/03 09:17:54;;;;;;;1.65;0.50;;;7.40;99.90;;;;;;5001786;28;20101;-80
2022/04/03 09:20:22;;;;;;;7.20;0.82;;;8.00;99.90;;;;;;5001048;28;20041;-79
2022/04/03 09:23:03;;;;;;;1.52;0.43;;;7.30;99.90;;;;;;4996391;28;20037;-79
2022/04/03 09:25:37;;;;;;;1.70;0.50;;;7.00;99.90;;;;;;4982820;28;20117;-78
2022/04/03 09:28:08;;;;;;;3.13;0.63;;;6.60;99.90;;;;;;4984082;28;20638;-80
2022/04/03 09:30:49;;;;;;;3.17;0.45;;;6.40;99.90;;;;;;4994515;28;20037;-78
2022/04/03 09:33:20;;;;;;;1.25;0.20;;;6.20;99.90;;;;;;5017604;28;20034;-80
2022/04/03 09:35:57;;;;;;;1.02;0.13;;;6.50;99.90;;;;;;4983520;28;20071;-78
2022/04/03 09:38:25;;;;;;;1.42;0.20;;;6.70;99.90;;;;;;4999971;28;20029;-78
2022/04/03 09:40:52;;;;;;;3.50;0.20;;;7.40;99.90;;;;;;5015683;28;20120;-79
2022/04/03 09:43:18;;;;;;;1.17;0.30;;;7.60;99.90;;;;;;4999136;28;20033;-81
2022/04/03 09:45:49;;;;;;;2.97;0.20;;;7.00;99.90;;;;;;5017990;28;20097;-79
2022/04/03 09:48:34;;;;;;;2.20;0.20;;;6.60;99.90;;;;;;4977329;28;20041;-80
2022/04/03 09:51:16;;;;;;;1.02;0.20;;;6.90;99.90;;;;;;5016234;28;20120;-79
2022/04/03 09:53:47;;;;;;;1.77;0.30;;;7.00;99.90;;;;;;4999825;28;20083;-79
2022/04/03 09:56:34;;;;;;;2.05;0.20;;;7.00;99.90;;;;;;4998852;28;20128;-80
2022/04/03 09:59:03;;;;;;;1.33;0.10;;;6.80;99.90;;;;;;4998135;28;20061;-79
2022/04/03 10:01:41;;;;;;;1.95;0.10;;;6.70;99.90;;;;;;4999539;28;20124;-79
2022/04/03 10:04:09;;;;;;;0.95;0.10;;;6.70;99.90;;;;;;5000018;28;20383;-81
2022/04/03 10:06:38;;;;;;;1.05;0.10;;;6.70;99.90;;;;;;4984022;28;20068;-79
2022/04/03 10:09:04;;;;;;;1.27;0.10;;;6.50;99.90;;;;;;5000727;28;20291;-79
2022/04/03 10:11:30;;;;;;;0.80;0.10;;;6.40;99.90;;;;;;4999594;28;20543;-82
2022/04/03 10:13:57;;;;;;;1.27;0.20;;;6.50;99.90;;;;;;4995285;28;20037;-79
2022/04/03 10:16:23;;;;;;;1.15;0.20;;;6.50;99.90;;;;;;5017462;28;20371;-80
2022/04/03 10:18:49;;;;;;;1.88;0.30;;;6.50;99.90;;;;;;5018198;28;20420;-81
2022/04/03 10:21:18;;;;;;;2.90;0.20;;;6.50;99.90;;;;;;4977132;28;20046;-80
2022/04/03 10:23:45;;;;;;;0.95;0.17;;;6.50;99.90;;;;;;5017404;28;20026;-81
2022/04/03 10:26:15;;;;;;;1.42;0.15;;;6.50;99.90;;;;;;5012445;28;20171;-81
2022/04/03 10:28:49;;;;;;;1.40;0.20;;;6.50;99.90;;;;;;5017123;28;20614;-80
2022/04/03 10:31:16;;;;;;;1.70;0.20;;;6.80;99.90;;;;;;4995533;28;20052;-79
2022/04/03 10:33:44;;;;;;;0.95;0.20;;;7.10;99.90;;;;;;4994334;28;20065;-80
2022/04/03 10:36:13;;;;;;;1.73;0.20;;;7.10;99.90;;;;;;4993568;28;20033;-80
2022/04/03 10:38:55;;;;;;;0.68;0.10;;;7.20;99.90;;;;;;4983391;28;20466;-81
2022/04/03 10:41:29;;;;;;;1.10;0.10;;;7.10;99.90;;;;;;4998579;28;20033;-80
2022/04/03 10:44:14;;;;;;;1.23;0.10;;;7.40;99.90;;;;;;5016107;28;20470;-80
2022/04/03 10:47:05;;;;;;;1.13;0.10;;;7.70;99.90;;;;;;5015755;28;20375;-80
2022/04/03 10:49:37;;;;;;;0.95;0.10;;;7.80;99.90;;;;;;4992841;28;20043;-80
2022/04/03 10:52:22;;;;;;;1.48;0.17;;;7.60;99.90;;;;;;4998565;28;20168;-80
2022/04/03 10:54:59;;;;;;;0.90;0.20;;;7.20;99.90;;;;;;5016956;28;20040;-79
2022/04/03 10:58:12;;;;;;;1.08;0.30;;;6.90;99.90;;;;;;4998632;28;20840;-80
2022/04/03 11:00:40;;;;;;;1.75;0.25;;;6.70;99.90;;;;;;4977578;28;20034;-79
2022/04/03 11:03:15;;;;;;;3.90;0.30;;;6.70;99.90;;;;;;5016018;28;20104;-80
2022/04/03 11:05:47;;;;;;;2.47;0.30;;;6.70;99.90;;;;;;4976621;28;20037;-78
2022/04/03 11:08:13;;;;;;;1.42;0.30;;;6.60;99.90;;;;;;4997835;28;20049;-80
2022/04/03 11:10:54;;;;;;;2.22;0.40;;;6.60;99.90;;;;;;5016166;28;20040;-81
2022/04/03 11:13:36;;;;;;;4.05;0.30;;;6.60;99.90;;;;;;5016616;28;20037;-82
2022/04/03 11:16:03;;;;;;;2.05;0.40;;;6.60;99.90;;;;;;4978442;28;20083;-83
2022/04/03 11:18:36;;;;;;;2.50;0.30;;;6.40;99.90;;;;;;4977302;28;20040;-82
2022/04/03 11:21:14;;;;;;;3.83;0.30;;;6.40;99.90;;;;;;5017046;28;20116;-81
2022/04/03 11:24:09;;;;;;;0.90;0.22;;;6.40;99.90;;;;;;5000241;28;20068;-83
2022/04/03 11:26:36;;;;;;;2.10;0.20;;;6.60;99.90;;;;;;4984763;28;20037;-81
2022/04/03 11:29:04;;;;;;;1.63;0.30;;;6.50;99.90;;;;;;4994921;28;20049;-82
2022/04/03 11:31:31;;;;;;;0.88;0.30;;;6.50;99.90;;;;;;4995045;28;20030;-81
2022/04/03 11:33:57;;;;;;;2.65;0.35;;;6.70;99.90;;;;;;4983854;28;20097;-80
2022/04/03 11:36:28;;;;;;;1.30;0.30;;;6.90;99.90;;;;;;4978990;28;20033;-81
2022/04/03 11:38:55;;;;;;;2.38;0.30;;;7.60;99.90;;;;;;5000077;28;20147;-83
2022/04/03 11:41:31;;;;;;;2.63;0.40;;;8.10;99.90;;;;;;4977880;28;20037;-81
2022/04/03 11:44:00;;;;;;;4.25;0.40;;;8.20;99.90;;;;;;5000157;28;20075;-82
2022/04/03 11:46:27;;;;;;;1.60;0.50;;;8.50;99.90;;;;;;4976374;28;20500;-81
2022/04/03 11:48:52;;;;;;;1.63;0.22;;;9.00;99.90;;;;;;4992776;28;20411;-81
2022/04/03 11:51:21;;;;;;;2.10;0.40;;;8.90;99.90;;;;;;4982270;28;20041;-81
2022/04/03 11:53:55;;;;;;;1.80;0.20;;;8.40;99.90;;;;;;4977763;28;20470;-84
2022/04/03 11:56:21;;;;;;;0.55;0.20;;;8.10;99.90;;;;;;4998937;28;20040;-83
2022/04/03 11:58:50;;;;;;;1.48;0.20;;;7.70;99.90;;;;;;4997546;28;20564;-82
2022/04/03 12:01:36;;;;;;;2.15;0.30;;;7.40;99.90;;;;;;5000574;28;20378;-81
2022/04/03 12:04:10;;;;;;;2.38;0.30;;;7.20;99.90;;;;;;5019592;28;20045;-82
2022/04/03 12:06:38;;;;;;;0.77;0.20;;;6.90;99.90;;;;;;5000799;28;20072;-82
2022/04/03 12:09:08;;;;;;;1.63;0.32;;;6.80;99.90;;;;;;4982591;28;20378;-84
2022/04/03 12:11:37;;;;;;;1.08;0.38;;;6.50;99.90;;;;;;4979191;28;20114;-84
2022/04/03 12:14:04;;;;;;;0.85;0.20;;;6.50;99.90;;;;;;4997540;28;20037;-81
2022/04/03 12:16:32;;;;;;;0.98;0.20;;;6.60;99.90;;;;;;4997171;28;20482;-83
2022/04/03 12:19:03;;;;;;;0.73;0.30;;;6.50;99.90;;;;;;4980397;28;20030;-83
2022/04/03 12:21:47;;;;;;;3.33;0.20;;;6.40;99.90;;;;;;4996218;28;20116;-81
2022/04/03 12:24:21;;;;;;;1.90;0.20;;;6.50;99.90;;;;;;4979205;28;20405;-81
2022/04/03 12:26:52;;;;;;;3.28;0.30;;;6.60;99.90;;;;;;5020569;28;20056;-82
2022/04/03 12:29:19;;;;;;;2.03;0.30;;;6.80;99.90;;;;;;5002599;28;20433;-82
2022/04/03 12:31:59;;;;;;;2.17;0.20;;;6.80;99.90;;;;;;5005644;28;20474;-83
2022/04/03 12:34:27;;;;;;;0.82;0.20;;;6.80;99.90;;;;;;4998776;28;20794;-81
2022/04/03 12:36:55;;;;;;;0.82;0.35;;;6.90;99.90;;;;;;5023167;28;20129;-82
2022/04/03 12:40:00;;;;;;;2.05;0.28;;;7.00;99.90;;;;;;4982595;28;20030;-83
2022/04/03 12:42:37;;;;;;;1.23;0.20;;;7.00;99.90;;;;;;4967877;28;20045;-81
2022/04/03 12:45:08;;;;;;;1.05;0.20;;;6.80;99.90;;;;;;4996536;28;20099;-83
2022/04/03 12:47:44;;;;;;;1.27;0.28;;;6.90;99.90;;;;;;5017865;28;20038;-84
2022/04/03 12:50:21;;;;;;;1.73;0.25;;;6.70;99.90;;;;;;4980696;28;20029;-81
2022/04/03 12:53:14;;;;;;;2.22;0.40;;;6.40;99.90;;;;;;4976442;28;20387;-83
2022/04/03 12:55:50;;;;;;;4.80;0.30;;;6.20;99.90;;;;;;5010826;28;20698;-79